^^
Grace C. Lehan Memorial Weather Station Historical Data
Daily Summary for June 21, 2021 Units:  English    Metric   Both
Daily Weekly Monthly Yearly
  High: Low: Average:
Temperature: 56.5 °F 37.1 °F 46.6 °F
Dew Point: 49.9 °F 31.2 °F 38.9 °F
Humidity: 95% 42% 76%
Wind Speed: 3.9mph 0mph 0.3mph
Wind Gust: 11mph - -
Wind- - SSW
Pressure: 30.38 in 29.91 in -
Precipitation: 0.05 in    
 
 
Tabular Data for June 21, 2021
Time Temperature Dew Point Pressure Wind Wind Speed Wind Gust Humidity Rainfall Rate (Hourly) solar
00:04 37.1 °F 31.2 °F 30.38 in Calm     79% 0.00 in 0 W/m2
00:09 37.1 °F 31.5 °F 30.38 in Calm     79.8% 0.00 in 0 W/m2
00:14 37.3 °F 31.7 °F 30.37 in Calm     80% 0.00 in 0 W/m2
00:19 37.3 °F 31.7 °F 30.37 in Calm     80% 0.00 in 0 W/m2
00:24 37.4 °F 31.8 °F 30.37 in Calm     80% 0.00 in 0 W/m2
00:29 37.5 °F 31.9 °F 30.37 in Calm     80% 0.00 in 0 W/m2
00:34 37.6 °F 32.2 °F 30.36 in Calm     80.6% 0.00 in 0 W/m2
00:39 37.7 °F 32.4 °F 30.37 in Calm     81% 0.00 in 0 W/m2
00:44 37.7 °F 32.4 °F 30.37 in Calm     81% 0.00 in 0 W/m2
00:49 37.8 °F 32.5 °F 30.36 in Calm     81% 0.00 in 0 W/m2
00:54 37.9 °F 32.6 °F 30.36 in Calm     81% 0.00 in 0 W/m2
00:59 38.1 °F 32.8 °F 30.35 in Calm     81.3% 0.00 in 0 W/m2
01:04 38.2 °F 33.2 °F 30.35 in Calm     82% 0.00 in 0 W/m2
01:09 38.3 °F 33.3 °F 30.35 in Calm     82% 0.00 in 0 W/m2
01:14 38.4 °F 33.3 °F 30.35 in Calm     81.7% 0.00 in 0 W/m2
01:19 38.3 °F 33 °F 30.34 in Calm     81% 0.00 in 0 W/m2
01:24 38.2 °F 32.9 °F 30.35 in Calm     81% 0.00 in 0 W/m2
01:29 38.1 °F 32.9 °F 30.35 in Calm     81.3% 0.00 in 0 W/m2
01:34 38 °F 33 °F 30.35 in Calm     81.8% 0.00 in 0 W/m2
01:39 38 °F 33 °F 30.35 in Calm     82% 0.00 in 0 W/m2
01:44 37.9 °F 32.9 °F 30.35 in Calm     82% 0.00 in 0 W/m2
01:49 37.9 °F 33.1 °F 30.35 in Calm     82.7% 0.00 in 0 W/m2
01:54 37.9 °F 33.2 °F 30.35 in Calm     83% 0.00 in 0 W/m2
01:59 38.1 °F 33.5 °F 30.35 in Calm     83.5% 0.00 in 0 W/m2
02:04 38.2 °F 33.8 °F 30.35 in Calm     84% 0.00 in 0 W/m2
02:09 38.3 °F 33.9 °F 30.35 in Calm     84% 0.00 in 0 W/m2
02:14 38.4 °F 34 °F 30.35 in Calm     84% 0.00 in 0 W/m2
02:19 38.5 °F 34.1 °F 30.36 in Calm     84% 0.00 in 0 W/m2
02:24 38.5 °F 34.1 °F 30.36 in Calm     84% 0.00 in 0 W/m2
02:29 38.5 °F 34.1 °F 30.35 in Calm     84% 0.00 in 0 W/m2
02:34 38.3 °F 33.8 °F 30.35 in Calm     83.6% 0.00 in 0 W/m2
02:39 38.2 °F 33.5 °F 30.35 in Calm     83% 0.00 in 0 W/m2
02:44 38.1 °F 33.4 °F 30.35 in Calm     83% 0.00 in 0 W/m2
02:49 37.9 °F 33.5 °F 30.35 in Calm     83.8% 0.00 in 0 W/m2
02:54 37.9 °F 33.5 °F 30.35 in Calm     84% 0.00 in 0 W/m2
02:59 37.8 °F 33.4 °F 30.34 in Calm     84% 0.00 in 0 W/m2
03:04 37.8 °F 33.6 °F 30.34 in Calm     84.7% 0.00 in 0 W/m2
03:09 37.8 °F 33.7 °F 30.34 in Calm     85% 0.00 in 0 W/m2
03:14 37.8 °F 33.7 °F 30.34 in Calm     85% 0.00 in 0 W/m2
03:19 37.8 °F 33.7 °F 30.34 in Calm     85% 0.00 in 0 W/m2
03:24 37.8 °F 33.7 °F 30.33 in Calm     85% 0.00 in 0 W/m2
03:29 37.8 °F 33.7 °F 30.33 in Calm     85% 0.00 in 0 W/m2
03:34 37.8 °F 33.7 °F 30.33 in Calm     85% 0.00 in 0 W/m2
03:39 37.7 °F 33.7 °F 30.33 in Calm     85.2% 0.00 in 0 W/m2
03:44 37.8 °F 34 °F 30.33 in Calm     86% 0.00 in 0 W/m2
03:49 37.7 °F 33.9 °F 30.33 in Calm     86% 0.00 in 0 W/m2
03:54 37.6 °F 33.5 °F 30.33 in Calm     85% 0.00 in 0 W/m2
03:59 37.5 °F 33.6 °F 30.33 in Calm     85.6% 0.00 in 0 W/m2
04:09 37.4 °F 33.6 °F 30.33 in Calm     86% 0.00 in 0 W/m2
04:14 37.4 °F 33.6 °F 30.33 in Calm     86% 0.00 in 0 W/m2
04:19 37.3 °F 33.5 °F 30.33 in Calm     86% 0.00 in 0 W/m2
04:24 37.3 °F 33.5 °F 30.32 in Calm     86% 0.00 in 0 W/m2
04:29 37.3 °F 33.6 °F 30.32 in Calm     86.5% 0.00 in 0 W/m2
04:34 37.3 °F 33.8 °F 30.32 in Calm     87% 0.00 in 0 W/m2
04:39 37.3 °F 33.8 °F 30.32 in Calm     87% 0.00 in 0 W/m2
04:44 37.4 °F 33.9 °F 30.32 in Calm     87% 0.00 in 0 W/m2
04:49 37.4 °F 33.9 °F 30.32 in Calm     87% 0.00 in 0 W/m2
04:54 37.5 °F 34 °F 30.32 in Calm     87% 0.00 in 0 W/m2
04:59 37.5 °F 34.1 °F 30.32 in Calm     87.3% 0.00 in 0 W/m2
05:04 37.6 °F 34.1 °F 30.32 in Calm     87.3% 0.00 in 0 W/m2
05:09 37.6 °F 34.4 °F 30.32 in Calm     88% 0.00 in 0 W/m2
05:14 37.6 °F 34.4 °F 30.32 in Calm     88% 0.00 in 0 W/m2
05:19 37.6 °F 34.4 °F 30.32 in Calm     88% 0.00 in 0 W/m2
05:24 37.7 °F 34.4 °F 30.32 in Calm     88% 0.00 in 0 W/m2
05:29 37.7 °F 34.5 °F 30.32 in Calm     88% 0.00 in 0 W/m2
05:34 37.7 °F 34.5 °F 30.32 in Calm     88% 0.00 in 0 W/m2
05:39 37.7 °F 34.5 °F 30.32 in Calm     88% 0.00 in 0 W/m2
05:44 37.8 °F 34.5 °F 30.32 in Calm     88% 0.00 in 0 W/m2
05:49 37.8 °F 34.6 °F 30.31 in Calm     88% 0.00 in 0 W/m2
05:54 37.9 °F 34.7 °F 30.32 in Calm     88.2% 0.00 in 0 W/m2
05:59 37.9 °F 34.9 °F 30.32 in Calm     88.9% 0.00 in 0 W/m2
06:04 38 °F 35.1 °F 30.32 in Calm     89% 0.00 in 0 W/m2
06:09 38 °F 35.1 °F 30.32 in Calm     89% 0.00 in 0 W/m2
06:14 38 °F 35.1 °F 30.32 in Calm     89% 0.00 in 0 W/m2
06:19 38 °F 35.1 °F 30.31 in Calm     89% 0.00 in 0 W/m2
06:24 38 °F 35.1 °F 30.31 in Calm     89% 0.00 in 0 W/m2
06:29 38.1 °F 35.1 °F 30.31 in Calm     89% 0.00 in 0 W/m2
06:34 38.2 °F 35.2 °F 30.31 in Calm     89% 0.00 in 0 W/m2
06:39 38.3 °F 35.3 °F 30.31 in Calm     89% 0.00 in 0 W/m2
06:44 38.3 °F 35.3 °F 30.31 in Calm     89% 0.00 in 0 W/m2
06:49 38.3 °F 35.3 °F 30.31 in Calm     88.7% 0.00 in 0 W/m2
06:54 38.3 °F 35.2 °F 30.31 in Calm     88.6% 0.00 in 0 W/m2
06:59 38.2 °F 35.3 °F 30.31 in Calm     89% 0.00 in 5 W/m2
07:04 38.2 °F 35.1 °F 30.31 in Calm     88.4% 0.00 in 7 W/m2
07:09 38.2 °F 35 °F 30.31 in Calm     88% 0.00 in 11 W/m2
07:14 38.2 °F 35.2 °F 30.31 in Calm     88.8% 0.00 in 12 W/m2
07:19 38.2 °F 35.2 °F 30.31 in Calm     89% 0.00 in 14 W/m2
07:24 38.2 °F 35.3 °F 30.31 in Calm     89% 0.00 in 18 W/m2
07:29 38.3 °F 35.3 °F 30.31 in Calm     89% 0.00 in 21 W/m2
07:34 38.3 °F 35.3 °F 30.31 in Calm     89% 0.00 in 25 W/m2
07:39 38.3 °F 35.4 °F 30.31 in Calm     89% 0.00 in 30 W/m2
07:44 38.4 °F 35.5 °F 30.31 in Calm     89% 0.00 in 42 W/m2
07:49 38.4 °F 35.5 °F 30.31 in Calm     89% 0.00 in 46 W/m2
07:54 38.4 °F 35.5 °F 30.31 in Calm     89% 0.00 in 42 W/m2
07:59 38.4 °F 35.4 °F 30.31 in Calm     89% 0.00 in 47 W/m2
08:09 38.5 °F 35.5 °F 30.31 in Calm   1 mph 89% 0.00 in 70 W/m2
08:14 38.7 °F 35.7 °F 30.31 in Calm   1 mph 89% 0.00 in 123 W/m2
08:19 39 °F 36.3 °F 30.31 in Calm   1 mph 90% 0.00 in 86 W/m2
08:24 39.3 °F 36.3 °F 30.31 in Calm   1 mph 89% 0.00 in 65 W/m2
08:29 39.6 °F 36.7 °F 30.30 in Calm   1 mph 89% 0.00 in 72 W/m2
08:34 39.9 °F 36.8 °F 30.30 in Calm   1 mph 88.6% 0.00 in 118 W/m2
08:39 40.1 °F 36.9 °F 30.30 in Calm     88% 0.00 in 260 W/m2
08:44 40.7 °F 37.4 °F 30.30 in Calm     88% 0.00 in 279 W/m2
08:49 41.6 °F 38.1 °F 30.30 in Calm     87.3% 0.00 in 278 W/m2
08:54 42.6 °F 38.6 °F 30.30 in Calm     85.5% 0.00 in 283 W/m2
08:59 43.4 °F 38.5 °F 30.30 in South 0.1 mph 3 mph 82.7% 0.00 in 116 W/m2
09:04 43.9 °F 38.2 °F 30.30 in South 0.2 mph 3 mph 80.4% 0.00 in 77 W/m2
09:09 44.1 °F 38.1 °F 30.30 in Calm   2 mph 79.4% 0.00 in 109 W/m2
09:14 44.3 °F 38.2 °F 30.30 in Calm   2 mph 79% 0.00 in 148 W/m2
09:19 44.7 °F 38.8 °F 30.30 in Calm   2 mph 79.7% 0.00 in 158 W/m2
09:24 45.2 °F 38.9 °F 30.30 in South 0.1 mph 2 mph 78.5% 0.00 in 214 W/m2
09:29 45.7 °F 38.9 °F 30.29 in South 0.1 mph 2 mph 76.9% 0.00 in 169 W/m2
09:34 46 °F 38.6 °F 30.29 in Calm   2 mph 75.1% 0.00 in 100 W/m2
09:39 46.2 °F 38.5 °F 30.29 in South 0.2 mph 3 mph 74.4% 0.00 in 107 W/m2
09:44 46.3 °F 38.5 °F 30.29 in Calm   3 mph 74% 0.00 in 160 W/m2
09:49 46.4 °F 38.6 °F 30.29 in Calm   3 mph 74% 0.00 in 190 W/m2
09:54 46.6 °F 38.7 °F 30.29 in Calm   3 mph 73.7% 0.00 in 190 W/m2
09:59 46.9 °F 38.4 °F 30.29 in Calm   3 mph 72.3% 0.00 in 190 W/m2
10:04 47.2 °F 38.6 °F 30.29 in Calm   3 mph 71.9% 0.00 in 381 W/m2
10:09 47.7 °F 39.1 °F 30.29 in South 0.1 mph 3 mph 72% 0.00 in 262 W/m2
10:14 48.2 °F 39 °F 30.28 in South 0.2 mph 3 mph 70.2% 0.00 in 336 W/m2
10:19 48.6 °F 38.7 °F 30.29 in South 0.2 mph 3 mph 68.6% 0.00 in 336 W/m2
10:24 48.8 °F 38.5 °F 30.28 in South 0.3 mph 3 mph 67.4% 0.00 in 461 W/m2
10:29 49.2 °F 38.7 °F 30.28 in Calm   3 mph 67% 0.00 in 468 W/m2
10:34 49.6 °F 38.9 °F 30.28 in Calm   3 mph 66.5% 0.00 in 418 W/m2
10:39 50 °F 38.8 °F 30.27 in South 0.3 mph 3 mph 65.2% 0.00 in 480 W/m2
10:44 50.4 °F 38.5 °F 30.27 in Calm   3 mph 63.5% 0.00 in 267 W/m2
10:49 50.9 °F 38.6 °F 30.26 in South 0.6 mph 5 mph 62.7% 0.00 in 230 W/m2
10:54 51.2 °F 38.8 °F 30.26 in South 0.2 mph 5 mph 62.4% 0.00 in 432 W/m2
10:59 51.5 °F 38.2 °F 30.26 in SSW 0.5 mph 5 mph 60.3% 0.00 in 385 W/m2
11:04 51.5 °F 38.3 °F 30.25 in SSW 0.9 mph 5 mph 60.4% 0.00 in 250 W/m2
11:09 51.6 °F 38.2 °F 30.25 in SSW 1.4 mph 4 mph 60.2% 0.00 in 374 W/m2
11:14 51.6 °F 38.4 °F 30.25 in Calm   4 mph 60.3% 0.00 in 374 W/m2
11:19 52 °F 38.8 °F 30.24 in SSW 0.3 mph 4 mph 60.7% 0.00 in 318 W/m2
11:24 52.3 °F 38.4 °F 30.24 in Calm   4 mph 59% 0.00 in 269 W/m2
11:29 52.7 °F 39 °F 30.24 in SSW 0.3 mph 5 mph 59.5% 0.00 in 116 W/m2
11:34 53.1 °F 39.4 °F 30.23 in Calm   5 mph 59.7% 0.00 in 155 W/m2
11:39 53.4 °F 38.5 °F 30.23 in SSW 0.6 mph 4 mph 57% 0.00 in 269 W/m2
11:44 53.7 °F 37.6 °F 30.22 in SSW 0.1 mph 4 mph 54.2% 0.00 in 241 W/m2
11:49 54.1 °F 38.3 °F 30.22 in Calm   4 mph 55% 0.00 in 221 W/m2
11:54 54.3 °F 38.5 °F 30.22 in Calm   4 mph 55.1% 0.00 in 207 W/m2
11:59 54.4 °F 38.8 °F 30.21 in South 0.5 mph 4 mph 55.6% 0.00 in 257 W/m2
12:09 54.5 °F 35 °F 30.21 in South 1.5 mph 5 mph 47.7% 0.00 in 276 W/m2
12:14 54.7 °F 34.6 °F 30.20 in SSW 1.4 mph 6 mph 46.4% 0.00 in 223 W/m2
12:19 55 °F 34.1 °F 30.20 in SSW 1.3 mph 6 mph 45% 0.00 in 246 W/m2
12:24 55.1 °F 34.2 °F 30.20 in SSW 0.9 mph 6 mph 45% 0.00 in 135 W/m2
12:29 55.3 °F 34.4 °F 30.20 in SSW 1.3 mph 6 mph 45.2% 0.00 in 181 W/m2
12:34 55.4 °F 34.2 °F 30.20 in SSW 1.1 mph 6 mph 44.6% 0.00 in 202 W/m2
12:39 55.6 °F 34.5 °F 30.19 in SSW 1.7 mph 7 mph 44.9% 0.00 in 130 W/m2
12:44 55.8 °F 34.5 °F 30.19 in SW 1.4 mph 7 mph 44.5% 0.00 in 132 W/m2
12:49 56 °F 34 °F 30.18 in SSW 1.6 mph 7 mph 43.3% 0.00 in 239 W/m2
12:54 56 °F 33.2 °F 30.18 in SSW 1.7 mph 8 mph 42% 0.00 in 336 W/m2
12:59 55.9 °F 33.7 °F 30.18 in SSW 0.7 mph 8 mph 42.8% 0.00 in 338 W/m2
13:04 56 °F 33.8 °F 30.17 in SW 1.6 mph 8 mph 43% 0.00 in 301 W/m2
13:09 56.1 °F 34.4 °F 30.17 in SSW 1.5 mph 6 mph 43.8% 0.00 in 253 W/m2
13:14 56.1 °F 33.6 °F 30.17 in SSW 1.1 mph 6 mph 42.5% 0.00 in 160 W/m2
13:19 56 °F 34.5 °F 30.17 in SW 1 mph 6 mph 44.2% 0.00 in 144 W/m2
13:24 56 °F 34.2 °F 30.17 in SW 0.7 mph 6 mph 43.7% 0.00 in 148 W/m2
13:29 56.1 °F 34.5 °F 30.16 in SW 1.3 mph 6 mph 44% 0.00 in 260 W/m2
13:34 56.3 °F 34.4 °F 30.16 in SW 0.5 mph 6 mph 43.5% 0.00 in 225 W/m2
13:39 56.4 °F 34.6 °F 30.15 in SW 1.7 mph 7 mph 43.7% 0.00 in 176 W/m2
13:44 56.4 °F 33.9 °F 30.15 in SW 3.1 mph 8 mph 42.4% 0.00 in 169 W/m2
13:49 56.4 °F 33.8 °F 30.15 in SW 1.6 mph 9 mph 42.3% 0.00 in 232 W/m2
13:54 56.4 °F 34.2 °F 30.15 in SW 1.4 mph 9 mph 43% 0.00 in 229 W/m2
13:59 56.5 °F 34.4 °F 30.14 in SW 1 mph 9 mph 43.1% 0.00 in 155 W/m2
14:04 56.4 °F 34.7 °F 30.14 in SW 0.3 mph 9 mph 43.8% 0.00 in 130 W/m2
14:09 56.4 °F 35.5 °F 30.14 in SW 0.7 mph 4 mph 45.2% 0.00 in 123 W/m2
14:14 56.3 °F 36.6 °F 30.14 in SSW 1.3 mph 7 mph 47.5% 0.00 in 128 W/m2
14:19 56 °F 37.2 °F 30.14 in SSW 1.9 mph 7 mph 49% 0.00 in 128 W/m2
14:24 55.8 °F 37.6 °F 30.13 in SSW 3.9 mph 10 mph 50.4% 0.00 in 118 W/m2
14:29 55.3 °F 37.5 °F 30.13 in South 1.6 mph 10 mph 50.9% 0.00 in 95 W/m2
14:34 55.1 °F 37.8 °F 30.13 in South 1.7 mph 10 mph 52% 0.00 in 100 W/m2
14:39 54.9 °F 37.8 °F 30.13 in South 1.1 mph 5 mph 52.5% 0.00 in 104 W/m2
14:44 55 °F 38 °F 30.13 in South 0.8 mph 5 mph 52.6% 0.00 in 100 W/m2
14:49 55 °F 37.9 °F 30.13 in South 1.5 mph 11 mph 52.4% 0.00 in 97 W/m2
14:54 54.9 °F 38.3 °F 30.12 in South 0.2 mph 11 mph 53.3% 0.00 in 93 W/m2
14:59 54.9 °F 39 °F 30.12 in SSW 1.6 mph 11 mph 54.9% 0.00 in 93 W/m2
15:04 55 °F 39.1 °F 30.12 in SSW 2.7 mph 11 mph 55% 0.00 in 88 W/m2
15:09 54.9 °F 39.1 °F 30.12 in SW 1.8 mph 7 mph 55.2% 0.00 in 69 W/m2
15:14 54.7 °F 39.1 °F 30.12 in SSW 1.7 mph 7 mph 55.5% 0.00 in 60 W/m2
15:19 54.5 °F 39.1 °F 30.12 in SW 0.7 mph 7 mph 56% 0.00 in 46 W/m2
15:24 54.3 °F 39.2 °F 30.12 in SSW 1.3 mph 7 mph 56.6% 0.00 in 35 W/m2
15:29 54.1 °F 39.4 °F 30.12 in SSW 0.8 mph 7 mph 57.4% 0.00 in 33 W/m2
15:34 53.8 °F 39.7 °F 30.12 in SSW 0.6 mph 7 mph 58.5% 0.00 in 32 W/m2
15:39 53.6 °F 39.7 °F 30.12 in SSW 0.6 mph 4 mph 59.2% 0.00 in 26 W/m2
15:44 53.3 °F 39.8 °F 30.12 in SSW 1 mph 5 mph 60% 0.00 in 21 W/m2
15:49 53 °F 39.6 °F 30.12 in SSW 0.7 mph 6 mph 60.1% 0.00 in 19 W/m2
15:54 52.8 °F 39.7 °F 30.12 in SSW 0.4 mph 6 mph 61% 0.00 in 16 W/m2
15:59 52.6 °F 39.5 °F 30.12 in SSW 1.1 mph 6 mph 61% 0.00 in 11 W/m2
16:09 52.2 °F 39.4 °F 30.12 in SSW 0.9 mph 5 mph 61.4% 0.00 in 7 W/m2
16:14 52.1 °F 39.5 °F 30.12 in SSW 0.4 mph 5 mph 62% 0.00 in 5 W/m2
16:19 51.9 °F 39.5 °F 30.12 in SSW 2.3 mph 7 mph 62.3% 0.00 in 0 W/m2
16:24 51.9 °F 39.7 °F 30.12 in South 1 mph 7 mph 63% 0.00 in 0 W/m2
16:29 51.8 °F 39.6 °F 30.12 in South 0.3 mph 7 mph 63% 0.00 in 0 W/m2
16:34 51.7 °F 39.9 °F 30.12 in South 0.2 mph 7 mph 63.9% 0.00 in 0 W/m2
16:39 51.6 °F 39.8 °F 30.12 in South 0.1 mph 3 mph 64% 0.00 in 0 W/m2
16:44 51.5 °F 39.8 °F 30.12 in Calm   3 mph 64.3% 0.00 in 0 W/m2
16:49 51.3 °F 40 °F 30.12 in Calm   3 mph 65% 0.00 in 0 W/m2
16:54 51.2 °F 39.9 °F 30.11 in Calm   3 mph 65% 0.00 in 0 W/m2
16:59 51.2 °F 40 °F 30.11 in Calm   3 mph 65.5% 0.00 in 0 W/m2
17:04 51.1 °F 40.1 °F 30.11 in Calm   3 mph 66% 0.00 in 0 W/m2
17:09 51 °F 40.1 °F 30.11 in South 0.1 mph 3 mph 66% 0.00 in 0 W/m2
17:14 51 °F 40.2 °F 30.11 in Calm   3 mph 66.4% 0.00 in 0 W/m2
17:19 51 °F 40.4 °F 30.11 in Calm   3 mph 67% 0.00 in 0 W/m2
17:24 51 °F 40.4 °F 30.11 in South 0.3 mph 4 mph 67% 0.00 in 0 W/m2
17:29 51 °F 40.8 °F 30.11 in South 0.1 mph 4 mph 68% 0.00 in 0 W/m2
17:34 51 °F 41.2 °F 30.11 in Calm   4 mph 69% 0.00 in 0 W/m2
17:39 51 °F 41.4 °F 30.11 in Calm     69.4% 0.00 in 0 W/m2
17:44 51 °F 41.7 °F 30.10 in Calm     70.4% 0.00 in 0 W/m2
17:49 51 °F 42.2 °F 30.10 in South 0.3 mph 6 mph 71.7% 0.00 in 0 W/m2
17:54 51 °F 42.5 °F 30.10 in South 0.3 mph 6 mph 72.5% 0.00 in 0 W/m2
17:59 51 °F 42.7 °F 30.10 in Calm   6 mph 73% 0.00 in 0 W/m2
18:04 51 °F 42.9 °F 30.10 in South 0.2 mph 6 mph 73.8% 0.00 in 0 W/m2
18:09 50.9 °F 42.9 °F 30.09 in Calm   3 mph 74% 0.00 in 0 W/m2
18:14 50.9 °F 43.2 °F 30.09 in South 0.2 mph 3 mph 74.9% 0.00 in 0 W/m2
18:19 50.9 °F 43.3 °F 30.09 in South 0.1 mph 3 mph 75.2% 0.00 in 0 W/m2
18:24 50.8 °F 43.5 °F 30.09 in South 0.1 mph 3 mph 76% 0.00 in 0 W/m2
18:29 50.8 °F 43.5 °F 30.09 in South 0.1 mph 3 mph 76% 0.00 in 0 W/m2
18:34 50.8 °F 43.7 °F 30.09 in Calm   3 mph 76.5% 0.00 in 0 W/m2
18:39 50.8 °F 43.9 °F 30.09 in South 0.2 mph 3 mph 77% 0.00 in 0 W/m2
18:44 50.8 °F 43.9 °F 30.08 in South 0.2 mph 3 mph 77.1% 0.00 in 0 W/m2
18:49 50.9 °F 44.3 °F 30.08 in South 0.2 mph 3 mph 78% 0.00 in 0 W/m2
18:54 50.9 °F 44.3 °F 30.08 in Calm   3 mph 78% 0.00 in 0 W/m2
18:59 50.8 °F 44.2 °F 30.08 in South 0.3 mph 3 mph 78% 0.00 in 0 W/m2
19:04 50.9 °F 44.4 °F 30.07 in South 0.2 mph 3 mph 78.4% 0.00 in 0 W/m2
19:09 50.9 °F 44.6 °F 30.07 in South 0.6 mph 3 mph 79% 0.00 in 0 W/m2
19:14 50.9 °F 44.6 °F 30.07 in South 0.1 mph 3 mph 79% 0.00 in 0 W/m2
19:19 50.9 °F 44.9 °F 30.07 in South 0.4 mph 4 mph 80% 0.00 in 0 W/m2
19:24 50.9 °F 45 °F 30.07 in Calm   4 mph 80% 0.00 in 0 W/m2
19:29 50.9 °F 45 °F 30.07 in Calm   4 mph 80% 0.00 in 0 W/m2
19:34 50.9 °F 45.2 °F 30.07 in Calm   4 mph 80.7% 0.00 in 0 W/m2
19:39 50.9 °F 45.3 °F 30.06 in South 0.3 mph 3 mph 81% 0.00 in 0 W/m2
19:44 50.9 °F 45.4 °F 30.06 in South 0.1 mph 3 mph 81.5% 0.00 in 0 W/m2
19:49 50.9 °F 45.9 °F 30.06 in Calm   3 mph 82.9% 0.01 in 0 W/m2
19:54 50.8 °F 46.3 °F 30.06 in Calm   3 mph 84.3% 0.01 in 0 W/m2
19:59 50.7 °F 46.4 °F 30.06 in Calm   3 mph 85.4% 0.01 in 0 W/m2
20:00 50.6 °F 46.6 °F 30.06 in Calm   3 mph 86% 0.01 in 0 W/m2
20:09 50.4 °F 46.7 °F 30.05 in Calm     87.1% 0.01 in 0 W/m2
20:14 50.2 °F 46.8 °F 30.05 in Calm     88% 0.02 in 0 W/m2
20:19 50.1 °F 46.7 °F 30.05 in Calm     88% 0.02 in 0 W/m2
20:24 50 °F 46.9 °F 30.04 in Calm     89% 0.02 in 0 W/m2
20:29 49.9 °F 46.8 °F 30.03 in Calm     89% 0.02 in 0 W/m2
20:34 49.8 °F 47 °F 30.03 in Calm     89.9% 0.02 in 0 W/m2
20:39 49.8 °F 47.1 °F 30.03 in Calm     90.3% 0.02 in 0 W/m2
20:44 49.7 °F 47.2 °F 30.02 in Calm     91% 0.02 in 0 W/m2
20:49 49.7 °F 47.2 °F 30.03 in Calm     91% 0.02 in 0 W/m2
20:54 49.7 °F 47.2 °F 30.02 in Calm     91.3% 0.03 in 0 W/m2
20:59 49.6 °F 47.4 °F 30.02 in Calm   2 mph 92% 0.03 in 0 W/m2
21:04 49.7 °F 47.5 °F 30.02 in Calm   2 mph 92% 0.03 in 0 W/m2
21:09 49.7 °F 47.5 °F 30.02 in Calm     92% 0.02 in 0 W/m2
21:14 49.7 °F 47.5 °F 30.01 in Calm     92.2% 0.02 in 0 W/m2
21:19 49.7 °F 47.6 °F 30.00 in South 0.1 mph 2 mph 92.5% 0.03 in 0 W/m2
21:24 49.7 °F 47.8 °F 29.99 in Calm   2 mph 93% 0.03 in 0 W/m2
21:29 49.7 °F 47.8 °F 29.99 in South 0.1 mph 2 mph 93% 0.03 in 0 W/m2
21:34 49.7 °F 47.8 °F 29.98 in South 0.5 mph 5 mph 93% 0.03 in 0 W/m2
21:39 49.8 °F 47.8 °F 29.98 in South 0.5 mph 5 mph 93% 0.03 in 0 W/m2
21:44 49.8 °F 47.9 °F 29.98 in South 0.3 mph 5 mph 93% 0.03 in 0 W/m2
21:49 49.9 °F 47.9 °F 29.97 in Calm   5 mph 93% 0.03 in 0 W/m2
21:54 49.9 °F 48.3 °F 29.97 in Calm   5 mph 94% 0.03 in 0 W/m2
21:59 49.9 °F 48.3 °F 29.96 in Calm   5 mph 94% 0.03 in 0 W/m2
22:04 49.9 °F 48.3 °F 29.96 in Calm   5 mph 94% 0.03 in 0 W/m2
22:09 50 °F 48.3 °F 29.96 in Calm     94% 0.02 in 0 W/m2
22:14 50 °F 48.4 °F 29.96 in Calm     94% 0.02 in 0 W/m2
22:19 50 °F 48.4 °F 29.95 in Calm     94% 0.02 in 0 W/m2
22:24 50.1 °F 48.4 °F 29.95 in Calm     94% 0.02 in 0 W/m2
22:29 50.1 °F 48.5 °F 29.95 in South 0.4 mph 3 mph 94% 0.02 in 0 W/m2
22:34 50.2 °F 48.6 °F 29.95 in South 0.3 mph 3 mph 94% 0.02 in 0 W/m2
22:39 50.3 °F 48.6 °F 29.94 in South 0.4 mph 3 mph 94% 0.00 in 0 W/m2
22:44 50.3 °F 48.7 °F 29.94 in South 0.1 mph 4 mph 94% 0.00 in 0 W/m2
22:49 50.4 °F 48.7 °F 29.94 in Calm   4 mph 94% 0.00 in 0 W/m2
22:54 50.4 °F 48.7 °F 29.94 in Calm   4 mph 94% 0.00 in 0 W/m2
22:59 50.4 °F 48.7 °F 29.94 in Calm   4 mph 94% 0.00 in 0 W/m2
23:00 50.5 °F 48.8 °F 29.93 in Calm   4 mph 94% 0.00 in 0 W/m2
23:09 50.5 °F 49.1 °F 29.93 in Calm   1 mph 95% 0.00 in 0 W/m2
23:14 50.5 °F 49.1 °F 29.93 in South 0.3 mph 3 mph 95% 0.00 in 0 W/m2
23:19 50.6 °F 49.2 °F 29.92 in South 0.2 mph 3 mph 95% 0.00 in 0 W/m2
23:24 50.6 °F 49.2 °F 29.93 in South 0.4 mph 3 mph 95% 0.00 in 0 W/m2
23:29 50.6 °F 49.2 °F 29.93 in South 1 mph 4 mph 95% 0.00 in 0 W/m2
23:34 50.6 °F 49.2 °F 29.93 in Calm   4 mph 95% 0.00 in 0 W/m2
23:39 50.6 °F 49.2 °F 29.93 in South 0.1 mph 3 mph 95% 0.00 in 0 W/m2
23:44 50.7 °F 49.3 °F 29.93 in Calm   3 mph 95% 0.00 in 0 W/m2
23:49 50.9 °F 49.5 °F 29.92 in South 1.4 mph 6 mph 95% 0.00 in 0 W/m2
23:54 51.1 °F 49.7 °F 29.91 in South 0.5 mph 6 mph 95% 0.00 in 0 W/m2
23:59 51.3 °F 49.9 °F 29.91 in South 1.5 mph 6 mph 95% 0.00 in 0 W/m2
Hartford County Weather
Compliments of Weather Underground - 4 mb